Time,TemperatureF,DewpointF,PressureIn,WindDirection,WindDirectionDegrees,WindSpeedMPH,WindSpeedGustMPH,Humidity,HourlyPrecipIn,Conditions,Clouds,dailyrainin,SoftwareType,DateUTC
2013-03-07 03:33:00,45.0,-99.9,-100.00,East,91,3.0,4.0,-999,-99.99,,,-99.99,,2013-03-07 09:33:00,
2013-03-07 03:43:00,45.0,-99.9,-100.00,East,91,3.0,4.0,-999,-99.99,,,-99.99,,2013-03-07 09:43:00,
2013-03-07 04:50:00,47.0,-99.9,-100.00,ENE,61,1.0,4.0,-999,-99.99,,,-99.99,,2013-03-07 10:50:00,
2013-03-07 04:54:00,45.0,-99.9,-100.00,ENE,62,3.0,6.0,-999,-99.99,,,-99.99,,2013-03-07 10:54:00,
2013-03-07 05:04:00,45.0,-99.9,-100.00,ENE,62,3.0,6.0,-999,-99.99,,,-99.99,,2013-03-07 11:04:00,
2013-03-07 05:34:00,47.0,-99.9,-100.00,ENE,61,1.0,4.0,-999,-99.99,,,-99.99,,2013-03-07 11:34:00,
2013-03-07 05:44:00,47.0,-99.9,-100.00,ENE,61,1.0,4.0,-999,-99.99,,,-99.99,,2013-03-07 11:44:00,
2013-03-07 06:34:00,45.0,-99.9,-100.00,NE,56,3.0,5.0,-999,-99.99,,,-99.99,,2013-03-07 12:34:00,
2013-03-07 06:43:00,45.0,-99.9,-100.00,NE,56,3.0,5.0,-999,-99.99,,,-99.99,,2013-03-07 12:43:00,
2013-03-07 06:53:00,45.0,-99.9,-100.00,NE,56,3.0,5.0,-999,-99.99,,,-99.99,,2013-03-07 12:53:00,
2013-03-07 09:33:00,58.0,-99.9,-100.00,East,100,7.0,8.0,-999,-99.99,,,-99.99,,2013-03-07 15:33:00,
2013-03-07 09:43:00,58.0,-99.9,-100.00,East,100,7.0,8.0,-999,-99.99,,,-99.99,,2013-03-07 15:43:00,
2013-03-07 09:50:00,62.0,-99.9,-100.00,ESE,113,4.0,9.0,-999,-99.99,,,-99.99,,2013-03-07 15:50:00,
2013-03-07 10:33:00,62.0,-99.9,-100.00,ESE,113,4.0,9.0,-999,-99.99,,,-99.99,,2013-03-07 16:33:00,
2013-03-07 10:40:00,65.0,-99.9,-100.00,SSE,156,2.0,9.0,-999,-99.99,,,-99.99,,2013-03-07 16:40:00,
2013-03-07 10:43:00,62.0,-99.9,-100.00,ESE,113,4.0,9.0,-999,-99.99,,,-99.99,,2013-03-07 16:43:00,
2013-03-07 11:23:00,65.0,-99.9,-100.00,SSE,156,2.0,9.0,-999,-99.99,,,-99.99,,2013-03-07 17:23:00,
2013-03-07 11:34:00,65.0,-99.9,-100.00,SSE,156,2.0,9.0,-999,-99.99,,,-99.99,,2013-03-07 17:34:00,
2013-03-07 12:53:00,68.0,-99.9,-100.00,South,185,9.0,10.0,-999,-99.99,,,-99.99,,2013-03-07 18:53:00,
2013-03-07 13:04:00,68.0,-99.9,-100.00,South,185,9.0,10.0,-999,-99.99,,,-99.99,,2013-03-07 19:04:00,
2013-03-07 13:35:00,73.0,-99.9,-100.00,West,268,7.0,15.0,-999,-99.99,,,-99.99,,2013-03-07 19:35:00,
2013-03-07 13:44:00,73.0,-99.9,-100.00,West,268,7.0,15.0,-999,-99.99,,,-99.99,,2013-03-07 19:44:00,
2013-03-07 13:50:00,71.0,-99.9,-100.00,SSE,150,16.0,20.0,-999,-99.99,,,-99.99,,2013-03-07 19:50:00,
2013-03-07 14:34:00,71.0,-99.9,-100.00,SSE,150,16.0,20.0,-999,-99.99,,,-99.99,,2013-03-07 20:34:00,
2013-03-07 14:44:00,71.0,-99.9,-100.00,SSE,150,16.0,20.0,-999,-99.99,,,-99.99,,2013-03-07 20:44:00,
2013-03-07 15:20:00,78.0,-99.9,-100.00,SSE,148,13.0,18.0,-999,-99.99,,,-99.99,,2013-03-07 21:20:00,
2013-03-07 16:02:00,78.0,-99.9,-100.00,SSE,148,13.0,18.0,-999,-99.99,,,-99.99,,2013-03-07 22:02:00,
2013-03-07 16:12:00,78.0,-99.9,-100.00,SSE,148,13.0,18.0,-999,-99.99,,,-99.99,,2013-03-07 22:12:00,
2013-03-07 19:20:00,68.0,-99.9,-100.00,SW,222,4.0,6.0,-999,-99.99,,,-99.99,,2013-03-08 01:20:00,
2013-03-07 20:02:00,68.0,-99.9,-100.00,SW,222,4.0,6.0,-999,-99.99,,,-99.99,,2013-03-08 02:02:00,
2013-03-07 20:12:00,68.0,-99.9,-100.00,SW,222,4.0,6.0,-999,-99.99,,,-99.99,,2013-03-08 02:12:00,
2013-03-07 20:40:00,62.0,-99.9,-100.00,SE,133,3.0,6.0,-999,-99.99,,,-99.99,,2013-03-08 02:40:00,
2013-03-07 21:23:00,62.0,-99.9,-100.00,SE,133,3.0,6.0,-999,-99.99,,,-99.99,,2013-03-08 03:23:00,
2013-03-07 21:33:00,62.0,-99.9,-100.00,SE,133,3.0,6.0,-999,-99.99,,,-99.99,,2013-03-08 03:33:00,
2013-03-07 23:20:00,54.0,-99.9,-100.00,NW,320,1.0,2.0,-999,-99.99,,,-99.99,,2013-03-08 05:20:00,
2013-03-07 23:52:00,55.0,-99.9,-100.00,East,91,1.0,4.0,-999,-99.99,,,-99.99,,2013-03-08 05:52:00,